Vamp — WDD2421 — position and weather

sailwx.info

Track history (hours):
 
Tides and Currents Weather Stations Pressure Air Temp Water Temp Dewpoint Dewpoint Depression Visibility Wind Speed Wind Dir Waves Ship Positions

Vamp

Owner: Sitar, Leonard J, Holmdel, NJ. More information available from US FCC via Universal Licensing System and Coast Guard Vessel Documentation Center.

Last reported at 2016-Aug-13 08:33 UTC. Time now 2016-Aug-24 17:57 UTC.
Position N 41°09' W 072°28'.
Warning: this ship's position is 11 days out of date.

Length 14 m.

Type: Sailing vessel. MMSI: 367115110.

Date/timePositionNaut miles runAvg speedWind from/ knotsBaromVisibWave heightAir tempDewpointWater temp
2016-Aug-13 08:33N 41°09' W 072°28'  
2016-Aug-09 15:26N 41°13' W 072°28'74 1.5
2016-Aug-07 13:33N 40°44' W 073°58'3 3.2
2016-Aug-07 12:33N 40°42' W 074°02'1 0.5
2016-Aug-07 11:33N 40°43' W 074°02'0 0.0
2016-Aug-06 21:11N 40°43' W 074°02'0 0.0
2016-Aug-06 20:32N 40°43' W 074°02'0 0.0
2016-Aug-06 19:31N 40°43' W 074°02'0 0.0
2016-Aug-06 18:33N 40°43' W 074°02'0 0.0
2016-Aug-06 17:31N 40°43' W 074°02'1 1.1
2016-Aug-06 16:33N 40°42' W 074°02'2 1.5
2016-Aug-06 15:34N 40°40' W 074°02'1 0.8
2016-Aug-06 14:33N 40°40' W 074°02'5 5.1
2016-Aug-06 13:29N 40°35' W 074°02'4 0.1
2016-Aug-04 19:32N 40°31' W 074°02'7 7.5
2016-Aug-04 18:33N 40°39' W 074°02'  
Track history (hours):
 
Tides and Currents Weather Stations Pressure Air Temp Water Temp Dewpoint Dewpoint Depression Visibility Wind Speed Wind Dir Waves Ship Positions

Vamp

Owner: Sitar, Leonard J, Holmdel, NJ. More information available from US FCC via Universal Licensing System and Coast Guard Vessel Documentation Center.

Last reported at 2016-Aug-13 08:33 UTC. Time now 2016-Aug-24 17:57 UTC.
Position N 41°09' W 072°28'.
Warning: this ship's position is 11 days out of date.

Length 14 m.

Type: Sailing vessel. MMSI: 367115110.

Date/timePositionNaut miles runAvg speedWind from/ knotsBaromVisibWave heightAir tempDewpointWater temp
2016-Aug-13 08:33N 41°09' W 072°28'  
2016-Aug-09 15:26N 41°13' W 072°28'74 1.5
2016-Aug-07 13:33N 40°44' W 073°58'3 3.2
2016-Aug-07 12:33N 40°42' W 074°02'1 0.5
2016-Aug-07 11:33N 40°43' W 074°02'0 0.0
2016-Aug-06 21:11N 40°43' W 074°02'0 0.0
2016-Aug-06 20:32N 40°43' W 074°02'0 0.0
2016-Aug-06 19:31N 40°43' W 074°02'0 0.0
2016-Aug-06 18:33N 40°43' W 074°02'0 0.0
2016-Aug-06 17:31N 40°43' W 074°02'1 1.1
2016-Aug-06 16:33N 40°42' W 074°02'2 1.5
2016-Aug-06 15:34N 40°40' W 074°02'1 0.8
2016-Aug-06 14:33N 40°40' W 074°02'5 5.1
2016-Aug-06 13:29N 40°35' W 074°02'4 0.1
2016-Aug-04 19:32N 40°31' W 074°02'7 7.5
2016-Aug-04 18:33N 40°39' W 074°02'  

Dump ship's entire track history